createdAt,value
2022-11-22T00:01:30.003Z,4.70
2022-11-22T00:03:58.286Z,4.70
2022-11-22T00:06:29.460Z,4.70
2022-11-22T00:08:59.182Z,4.70
2022-11-22T00:11:27.308Z,4.70
2022-11-22T00:13:56.791Z,4.60
2022-11-22T00:16:24.879Z,4.50
2022-11-22T00:18:53.324Z,4.50
2022-11-22T00:21:21.813Z,4.50
2022-11-22T00:23:49.914Z,4.50
2022-11-22T00:26:20.731Z,4.50
2022-11-22T00:28:49.071Z,4.50
2022-11-22T00:31:17.238Z,4.50
2022-11-22T00:33:45.569Z,4.60
2022-11-22T00:36:13.985Z,4.50
2022-11-22T00:38:42.111Z,4.60
2022-11-22T00:41:10.641Z,4.60
2022-11-22T00:43:40.402Z,4.60
2022-11-22T00:46:08.682Z,4.60
2022-11-22T00:48:38.688Z,4.60
2022-11-22T00:51:07.087Z,4.60
2022-11-22T00:53:35.217Z,4.60
2022-11-22T00:56:03.473Z,4.70
2022-11-22T00:58:31.614Z,4.60
2022-11-22T01:01:01.588Z,4.50
2022-11-22T01:03:30.065Z,4.50
2022-11-22T01:05:58.682Z,4.50
2022-11-22T01:08:26.984Z,4.50
2022-11-22T01:10:58.792Z,4.50
2022-11-22T01:13:28.928Z,4.50
2022-11-22T01:16:02.002Z,4.50
2022-11-22T01:18:30.388Z,4.50
2022-11-22T01:20:58.596Z,4.50
2022-11-22T01:23:27.255Z,4.50
2022-11-22T01:25:55.690Z,4.50
2022-11-22T01:28:24.031Z,4.50
2022-11-22T01:30:52.803Z,4.60
2022-11-22T01:33:24.045Z,4.60
2022-11-22T01:35:52.262Z,4.60
2022-11-22T01:38:20.610Z,4.60
2022-11-22T01:40:48.875Z,4.60
2022-11-22T01:43:20.364Z,4.60
2022-11-22T01:45:51.980Z,4.60
2022-11-22T01:48:26.911Z,4.60
2022-11-22T01:51:00.482Z,4.60
2022-11-22T01:53:32.112Z,4.60
2022-11-22T01:56:02.949Z,4.60
2022-11-22T01:58:34.155Z,4.60
2022-11-22T02:01:03.529Z,4.60
2022-11-22T02:03:35.929Z,4.60
2022-11-22T02:06:04.651Z,4.50
2022-11-22T02:08:39.337Z,4.50
2022-11-22T02:11:10.158Z,4.50
2022-11-22T02:13:42.758Z,4.40
2022-11-22T02:16:11.348Z,4.40
2022-11-22T02:18:41.246Z,4.40
2022-11-22T02:21:10.097Z,4.40
2022-11-22T02:23:52.125Z,4.40
2022-11-22T02:26:22.643Z,4.40
2022-11-22T02:28:52.748Z,4.40
2022-11-22T02:31:42.478Z,4.50
2022-11-22T02:34:10.892Z,4.40
2022-11-22T02:36:46.878Z,4.50
2022-11-22T02:39:19.377Z,4.50
2022-11-22T02:41:50.086Z,4.50
2022-11-22T02:44:18.975Z,4.50
2022-11-22T02:46:51.292Z,4.50
2022-11-22T02:49:20.027Z,4.60
2022-11-22T02:51:48.915Z,4.60
2022-11-22T02:54:17.018Z,4.70
2022-11-22T02:56:45.322Z,4.70
2022-11-22T02:59:14.971Z,4.70
2022-11-22T03:01:44.364Z,4.70
2022-11-22T03:04:24.843Z,4.80
2022-11-22T03:06:55.047Z,4.80
2022-11-22T03:09:23.325Z,4.90
2022-11-22T03:11:51.867Z,4.90
2022-11-22T03:14:21.765Z,4.80
2022-11-22T03:16:50.222Z,4.80
2022-11-22T03:19:18.525Z,4.80
2022-11-22T03:21:46.690Z,4.80
2022-11-22T03:24:15.385Z,4.80
2022-11-22T03:26:48.612Z,4.80
2022-11-22T03:29:17.006Z,4.80
2022-11-22T03:31:46.698Z,4.80
2022-11-22T03:34:15.436Z,4.80
2022-11-22T03:36:44.148Z,4.90
2022-11-22T03:39:12.317Z,4.90
2022-11-22T03:41:40.461Z,4.90
2022-11-22T03:44:08.637Z,4.90
2022-11-22T03:46:36.838Z,4.90
2022-11-22T03:49:06.506Z,5.00
2022-11-22T03:51:34.871Z,5.00
2022-11-22T03:54:03.237Z,5.00
2022-11-22T03:56:31.443Z,5.00
2022-11-22T03:59:07.994Z,5.00
2022-11-22T04:01:36.491Z,5.00
2022-11-22T04:04:06.657Z,5.00
2022-11-22T04:06:34.942Z,5.00
2022-11-22T04:09:03.736Z,4.90
2022-11-22T04:11:32.528Z,4.90
2022-11-22T04:14:18.688Z,4.90
2022-11-22T04:16:46.953Z,4.90
2022-11-22T04:19:16.907Z,5.00
2022-11-22T04:21:44.358Z,5.00
2022-11-22T04:24:31.269Z,5.00
2022-11-22T04:27:00.156Z,5.00
2022-11-22T04:29:29.775Z,4.90
2022-11-22T04:32:15.911Z,5.00
2022-11-22T04:34:45.698Z,5.00
2022-11-22T04:37:13.782Z,5.10
2022-11-22T04:39:41.828Z,5.10
2022-11-22T04:42:28.299Z,5.20
2022-11-22T04:44:56.575Z,5.10
2022-11-22T04:47:46.164Z,5.10
2022-11-22T04:50:39.473Z,5.10
2022-11-22T04:53:08.024Z,5.10
2022-11-22T04:55:36.968Z,5.20
2022-11-22T04:58:05.540Z,5.20
2022-11-22T05:00:34.706Z,5.20
2022-11-22T05:03:03.704Z,5.20
2022-11-22T05:05:36.811Z,5.30
2022-11-22T05:08:05.522Z,5.20
2022-11-22T05:10:54.215Z,5.20
2022-11-22T05:13:24.970Z,5.30
2022-11-22T05:15:53.502Z,5.30
2022-11-22T05:18:23.149Z,5.30
2022-11-22T05:20:53.120Z,5.30
2022-11-22T05:23:40.065Z,5.40
2022-11-22T05:26:09.937Z,5.40
2022-11-22T05:28:40.333Z,5.40
2022-11-22T05:31:10.232Z,5.40
2022-11-22T05:33:41.070Z,5.40
2022-11-22T05:36:12.057Z,5.40
2022-11-22T05:38:41.626Z,5.40
2022-11-22T05:41:11.943Z,5.30
2022-11-22T05:43:41.125Z,5.30
2022-11-22T05:46:10.866Z,5.30
2022-11-22T05:48:40.991Z,5.30
2022-11-22T05:51:12.956Z,5.30
2022-11-22T05:53:42.441Z,5.40
2022-11-22T05:56:11.788Z,5.40
2022-11-22T05:58:40.249Z,5.50
2022-11-22T06:01:11.018Z,5.50
2022-11-22T06:03:40.308Z,5.50
2022-11-22T06:06:10.639Z,5.60
2022-11-22T06:08:42.288Z,5.60
2022-11-22T06:11:12.316Z,5.60
2022-11-22T06:13:42.188Z,5.60
2022-11-22T06:16:11.388Z,5.60
2022-11-22T06:18:40.565Z,5.70
2022-11-22T06:21:14.280Z,5.70
2022-11-22T06:23:42.971Z,5.80
2022-11-22T06:26:14.607Z,5.80
2022-11-22T06:28:43.603Z,5.80
2022-11-22T06:31:14.445Z,5.80
2022-11-22T06:33:43.793Z,5.80
2022-11-22T06:36:15.663Z,5.90
2022-11-22T06:38:45.666Z,5.80
2022-11-22T06:41:16.783Z,5.80
2022-11-22T06:43:49.035Z,5.90
2022-11-22T06:46:18.999Z,5.90
2022-11-22T06:48:47.962Z,5.90
2022-11-22T06:51:20.136Z,5.90
2022-11-22T06:53:49.855Z,5.70
2022-11-22T06:56:19.785Z,5.80
2022-11-22T06:58:48.927Z,5.70
2022-11-22T07:01:19.501Z,5.80
2022-11-22T07:03:49.136Z,5.80
2022-11-22T07:06:20.712Z,6.00
2022-11-22T07:08:48.901Z,6.00
2022-11-22T07:11:19.566Z,6.10
2022-11-22T07:13:49.991Z,6.10
2022-11-22T07:16:20.188Z,6.10
2022-11-22T07:18:48.741Z,6.20
2022-11-22T07:21:20.101Z,6.20
2022-11-22T07:23:49.764Z,6.20
2022-11-22T07:26:19.656Z,6.30
2022-11-22T07:28:48.307Z,6.30
2022-11-22T07:31:18.076Z,6.30
2022-11-22T07:33:46.843Z,6.40
2022-11-22T07:36:28.699Z,6.30
2022-11-22T07:38:57.043Z,6.30
2022-11-22T07:41:25.190Z,6.30
2022-11-22T07:43:54.057Z,6.30
2022-11-22T07:46:29.686Z,6.40
2022-11-22T07:48:58.435Z,6.50
2022-11-22T07:51:27.965Z,6.50
2022-11-22T07:53:56.715Z,6.60
2022-11-22T07:56:25.089Z,6.50
2022-11-22T07:58:53.366Z,6.50
2022-11-22T08:01:21.607Z,6.50
2022-11-22T08:03:49.809Z,6.50
2022-11-22T08:06:17.871Z,6.50
2022-11-22T08:08:47.312Z,6.60
2022-11-22T08:11:15.394Z,6.60
2022-11-22T08:13:44.584Z,6.70
2022-11-22T08:16:16.026Z,6.80
2022-11-22T08:18:48.089Z,6.90
2022-11-22T08:21:17.340Z,7.00
2022-11-22T08:23:48.216Z,7.20
2022-11-22T08:26:18.412Z,7.40
2022-11-22T08:28:46.578Z,7.70
2022-11-22T08:31:16.683Z,8.00
2022-11-22T08:33:44.766Z,8.30
2022-11-22T08:36:13.199Z,8.80
2022-11-22T08:38:41.264Z,9.10
2022-11-22T08:41:11.383Z,9.30
2022-11-22T08:43:39.870Z,9.60
2022-11-22T08:46:08.427Z,9.90
2022-11-22T08:48:38.171Z,10.20
2022-11-22T08:51:08.416Z,10.30
2022-11-22T08:53:39.077Z,10.50
2022-11-22T08:56:09.835Z,11.10
2022-11-22T08:58:39.895Z,11.60
2022-11-22T09:01:09.161Z,12.20
2022-11-22T09:03:38.293Z,12.70
2022-11-22T09:09:15.089Z,13.20
2022-11-22T09:11:44.786Z,13.10
2022-11-22T09:14:14.364Z,13.00
2022-11-22T09:16:42.424Z,13.00
2022-11-22T09:19:10.697Z,13.10
2022-11-22T09:21:38.844Z,13.20
2022-11-22T09:24:07.422Z,12.90
2022-11-22T09:26:35.534Z,12.50
2022-11-22T09:29:03.615Z,11.90
2022-11-22T09:31:33.571Z,11.60
2022-11-22T09:34:01.800Z,11.30
2022-11-22T09:36:30.870Z,11.60
2022-11-22T09:38:59.041Z,12.40
2022-11-22T09:42:00.349Z,13.40
2022-11-22T09:44:36.694Z,13.80
2022-11-22T09:47:15.822Z,13.50
2022-11-22T09:49:54.881Z,13.10
2022-11-22T09:52:31.331Z,12.70
2022-11-22T09:55:02.923Z,12.60
2022-11-22T09:57:38.592Z,12.60
2022-11-22T10:00:09.470Z,12.50
2022-11-22T10:02:59.348Z,12.40
2022-11-22T10:05:33.508Z,12.30
2022-11-22T10:08:06.521Z,12.30
2022-11-22T10:10:41.281Z,12.10
2022-11-22T10:13:17.188Z,12.00
2022-11-22T10:15:51.387Z,11.90
2022-11-22T10:18:28.538Z,11.60
2022-11-22T10:20:57.016Z,11.50
2022-11-22T10:23:26.615Z,11.60
2022-11-22T10:25:59.669Z,11.60
2022-11-22T10:28:35.459Z,11.50
2022-11-22T10:31:11.531Z,11.40
2022-11-22T10:33:47.334Z,11.20
2022-11-22T10:36:28.447Z,11.30
2022-11-22T10:39:20.511Z,11.20
2022-11-22T10:42:00.517Z,11.20
2022-11-22T10:44:42.573Z,11.20
2022-11-22T10:47:19.903Z,11.30
2022-11-22T10:49:58.687Z,11.20
2022-11-22T10:52:35.120Z,11.20
2022-11-22T10:55:14.020Z,11.10
2022-11-22T10:57:51.214Z,11.00
2022-11-22T11:00:21.988Z,10.90
2022-11-22T11:03:13.332Z,10.90
2022-11-22T11:06:21.076Z,10.80
2022-11-22T11:09:23.284Z,10.80
2022-11-22T11:11:31.951Z,10.80
2022-11-22T11:14:03.611Z,10.80
2022-11-22T11:16:36.663Z,10.90
2022-11-22T11:19:17.778Z,10.90
2022-11-22T11:21:48.579Z,11.00
2022-11-22T11:24:17.952Z,11.00
2022-11-22T11:26:54.214Z,11.10
2022-11-22T11:29:38.480Z,11.10
2022-11-22T11:32:10.635Z,11.30
2022-11-22T11:34:41.332Z,11.40
2022-11-22T11:37:23.741Z,11.50
2022-11-22T11:39:51.862Z,11.70
2022-11-22T11:42:29.042Z,11.80
2022-11-22T11:45:22.691Z,12.00
2022-11-22T11:47:50.780Z,12.20
2022-11-22T11:50:24.320Z,12.20
2022-11-22T11:52:57.510Z,12.30
2022-11-22T11:55:26.427Z,12.40
2022-11-22T11:57:55.078Z,12.40
2022-11-22T12:00:27.223Z,12.40
2022-11-22T12:03:00.036Z,12.20
2022-11-22T12:05:30.407Z,12.20
2022-11-22T12:08:01.386Z,12.10
2022-11-22T12:10:33.260Z,12.00
2022-11-22T12:13:07.259Z,11.80
2022-11-22T12:15:45.514Z,11.80
2022-11-22T12:18:38.384Z,11.80
2022-11-22T12:21:18.054Z,11.70
2022-11-22T12:24:07.982Z,11.60
2022-11-22T12:26:43.103Z,11.60
2022-11-22T12:29:13.420Z,11.50
2022-11-22T12:32:02.129Z,11.50
2022-11-22T12:34:34.097Z,11.40
2022-11-22T12:37:07.788Z,11.40
2022-11-22T12:39:38.394Z,11.40
2022-11-22T12:42:16.452Z,11.30
2022-11-22T12:45:00.008Z,11.20
2022-11-22T12:47:34.302Z,11.20
2022-11-22T12:50:33.596Z,11.10
2022-11-22T12:53:08.567Z,11.10
2022-11-22T12:55:47.217Z,11.10
2022-11-22T12:58:22.492Z,11.10
2022-11-22T13:01:01.977Z,11.00
2022-11-22T13:03:37.273Z,11.00
2022-11-22T13:06:08.106Z,11.00
2022-11-22T13:08:41.975Z,11.00
2022-11-22T13:11:16.140Z,10.90
2022-11-22T13:13:50.488Z,10.80
2022-11-22T13:16:18.904Z,10.70
2022-11-22T13:18:51.206Z,10.60
2022-11-22T13:21:26.800Z,10.60
2022-11-22T13:24:10.198Z,10.60
2022-11-22T13:26:48.503Z,10.50
2022-11-22T13:29:23.102Z,10.60
2022-11-22T13:32:16.108Z,10.60
2022-11-22T13:38:40.457Z,10.60
2022-11-22T13:41:24.296Z,10.50
2022-11-22T13:43:57.072Z,10.60
2022-11-22T13:46:51.711Z,10.60
2022-11-22T13:49:38.311Z,10.60
2022-11-22T13:52:31.047Z,10.50
2022-11-22T13:55:33.827Z,10.30
2022-11-22T13:58:57.983Z,10.20
2022-11-22T14:02:01.731Z,10.00
2022-11-22T14:04:46.551Z,9.90
2022-11-22T14:07:36.414Z,9.80
2022-11-22T14:21:50.106Z,9.40
2022-11-22T14:24:31.357Z,9.30
2022-11-22T14:27:09.635Z,9.20
2022-11-22T14:29:54.268Z,9.20
2022-11-22T14:32:24.098Z,9.20
2022-11-22T14:35:30.159Z,9.10
2022-11-22T14:38:03.423Z,9.10
2022-11-22T14:40:34.341Z,9.10
2022-11-22T14:43:20.110Z,9.00
2022-11-22T14:45:51.645Z,8.90
2022-11-22T14:48:22.162Z,8.90
2022-11-22T14:50:59.371Z,8.80
2022-11-22T14:53:37.117Z,8.80
2022-11-22T14:56:09.351Z,8.80
2022-11-22T14:58:42.102Z,8.80
2022-11-22T15:01:31.839Z,8.70
2022-11-22T15:09:14.916Z,8.70
2022-11-22T15:09:19.462Z,8.70
2022-11-22T15:10:57.903Z,8.60
2022-11-22T15:14:04.862Z,8.50
2022-11-22T15:57:27.564Z,8.10
2022-11-22T15:59:56.992Z,8.10
2022-11-22T16:02:29.808Z,8.00
2022-11-22T16:06:04.344Z,8.00
2022-11-22T16:07:50.128Z,7.90
2022-11-22T16:10:22.102Z,7.80
2022-11-22T16:12:51.024Z,7.80
2022-11-22T16:15:30.637Z,7.80
2022-11-22T16:18:09.757Z,7.80
2022-11-22T16:20:38.865Z,7.80
2022-11-22T16:23:19.866Z,7.80
2022-11-22T16:25:50.117Z,7.70
2022-11-22T16:28:41.218Z,7.70
2022-11-22T16:31:18.870Z,7.70
2022-11-22T16:33:48.300Z,7.80
2022-11-22T16:36:17.932Z,7.80
2022-11-22T16:38:46.708Z,7.80
2022-11-22T16:41:22.153Z,7.70
2022-11-22T16:43:53.363Z,7.70
2022-11-22T16:46:21.600Z,7.70
2022-11-22T16:48:51.301Z,7.70
2022-11-22T16:51:23.672Z,7.60
2022-11-22T16:53:53.203Z,7.70
2022-11-22T16:56:23.036Z,7.70
2022-11-22T16:58:52.268Z,7.70
2022-11-22T17:01:22.662Z,7.70
2022-11-22T17:03:54.156Z,7.60
2022-11-22T17:06:24.910Z,7.60
2022-11-22T17:08:54.935Z,7.60
2022-11-22T17:11:25.296Z,7.50
2022-11-22T17:13:54.229Z,7.50
2022-11-22T17:16:22.263Z,7.50
2022-11-22T17:18:53.113Z,7.50
2022-11-22T17:21:30.202Z,7.40
2022-11-22T17:24:02.396Z,7.40
2022-11-22T17:26:32.627Z,7.30
2022-11-22T17:29:00.593Z,7.40
2022-11-22T17:31:29.712Z,7.30
2022-11-22T17:33:59.987Z,7.30
2022-11-22T17:36:30.546Z,7.20
2022-11-22T17:38:59.711Z,7.30
2022-11-22T17:41:29.040Z,7.20
2022-11-22T17:43:57.706Z,7.20
2022-11-22T17:46:25.916Z,7.20
2022-11-22T17:48:54.576Z,7.10
2022-11-22T17:51:24.271Z,7.10
2022-11-22T17:54:00.593Z,7.10
2022-11-22T17:56:40.068Z,7.10
2022-11-22T17:59:08.141Z,7.10
2022-11-22T18:01:38.218Z,7.00
2022-11-22T18:04:06.631Z,7.10
2022-11-22T18:06:36.233Z,7.10
2022-11-22T18:09:04.856Z,7.00
2022-11-22T18:11:33.181Z,7.00
2022-11-22T18:14:01.344Z,7.20
2022-11-22T18:16:30.158Z,7.10
2022-11-22T18:18:59.148Z,7.10
2022-11-22T18:21:29.346Z,7.20
2022-11-22T18:24:00.204Z,7.30
2022-11-22T18:26:39.231Z,7.20
2022-11-22T18:29:40.772Z,7.20
2022-11-22T18:31:59.555Z,7.20
2022-11-22T18:34:28.263Z,7.20
2022-11-22T18:37:01.818Z,7.20
2022-11-22T18:39:33.708Z,7.10
2022-11-22T18:42:08.471Z,7.10
2022-11-22T18:44:36.864Z,7.00
2022-11-22T18:47:07.494Z,7.10
2022-11-22T18:49:36.389Z,7.10
2022-11-22T18:52:07.526Z,7.10
2022-11-22T18:54:38.536Z,7.00
2022-11-22T18:57:09.988Z,7.00
2022-11-22T18:59:38.102Z,7.10
2022-11-22T19:02:06.410Z,7.00
2022-11-22T19:04:34.537Z,7.00
2022-11-22T19:07:05.774Z,7.00
2022-11-22T19:09:34.221Z,7.00
2022-11-22T19:12:04.073Z,7.00
2022-11-22T19:14:32.322Z,7.00
2022-11-22T19:17:01.400Z,7.00
2022-11-22T19:19:35.205Z,7.00
2022-11-22T19:22:11.773Z,7.10
2022-11-22T19:24:47.447Z,7.10
2022-11-22T19:27:20.221Z,7.10
2022-11-22T19:29:50.436Z,7.20
2022-11-22T19:32:19.927Z,7.20
2022-11-22T19:35:02.467Z,7.20
2022-11-22T19:37:39.068Z,7.10
2022-11-22T19:40:11.276Z,7.10
2022-11-22T19:42:42.739Z,7.10
2022-11-22T19:45:13.618Z,7.10
2022-11-22T19:48:00.862Z,7.10
2022-11-22T19:50:35.246Z,7.10
2022-11-22T19:53:15.186Z,7.10
2022-11-22T19:55:45.543Z,7.20
2022-11-22T19:58:25.894Z,7.10
2022-11-22T20:00:56.704Z,7.20
2022-11-22T20:03:27.720Z,7.20
2022-11-22T20:06:01.203Z,7.20
2022-11-22T20:08:29.542Z,7.20
2022-11-22T20:11:02.983Z,7.30
2022-11-22T20:13:44.016Z,7.30
2022-11-22T20:16:15.620Z,7.30
2022-11-22T20:18:43.894Z,7.40
2022-11-22T20:21:12.720Z,7.40
2022-11-22T20:23:42.050Z,7.40
2022-11-22T20:26:15.926Z,7.40
2022-11-22T20:28:47.242Z,7.40
2022-11-22T20:31:17.839Z,7.50
2022-11-22T20:33:51.833Z,7.40
2022-11-22T20:36:21.720Z,7.50
2022-11-22T20:38:57.565Z,7.50
2022-11-22T20:41:30.554Z,7.40
2022-11-22T20:44:08.727Z,7.40
2022-11-22T20:46:38.870Z,7.40
2022-11-22T20:49:07.897Z,7.40
2022-11-22T20:51:51.266Z,7.40
2022-11-22T20:54:21.031Z,7.40
2022-11-22T20:56:54.937Z,7.30
2022-11-22T20:59:24.733Z,7.30
2022-11-22T21:01:55.921Z,7.30
2022-11-22T21:04:24.288Z,7.30
2022-11-22T21:06:53.904Z,7.30
2022-11-22T21:09:30.511Z,7.20
2022-11-22T21:12:03.768Z,7.30
2022-11-22T21:14:35.705Z,7.30
2022-11-22T21:17:22.618Z,7.30
2022-11-22T21:19:51.813Z,7.30
2022-11-22T21:22:19.823Z,7.30
2022-11-22T21:24:50.761Z,7.30
2022-11-22T21:27:27.957Z,7.30
2022-11-22T21:30:01.833Z,7.30
2022-11-22T21:32:35.732Z,7.30
2022-11-22T21:35:04.289Z,7.30
2022-11-22T21:37:32.436Z,7.30
2022-11-22T21:40:00.453Z,7.30
2022-11-22T21:42:28.927Z,7.30
2022-11-22T21:44:58.854Z,7.20
2022-11-22T21:47:30.106Z,7.30
2022-11-22T21:50:04.971Z,7.20
2022-11-22T21:52:38.080Z,7.30
2022-11-22T21:55:07.488Z,7.20
2022-11-22T21:57:37.936Z,7.30
2022-11-22T22:00:10.345Z,7.30
2022-11-22T22:02:40.834Z,7.20
2022-11-22T22:05:09.532Z,7.20
2022-11-22T22:07:52.679Z,7.20
2022-11-22T22:10:21.348Z,7.20
2022-11-22T22:12:52.471Z,7.20
2022-11-22T22:15:22.387Z,7.10
2022-11-22T22:17:53.786Z,7.10
2022-11-22T22:20:21.924Z,7.10
2022-11-22T22:22:53.590Z,7.00
2022-11-22T22:25:21.944Z,7.00
2022-11-22T22:27:51.796Z,7.10
2022-11-22T22:30:23.078Z,7.10
2022-11-22T22:32:51.424Z,7.10
2022-11-22T22:35:19.805Z,7.10
2022-11-22T22:37:48.181Z,7.10
2022-11-22T22:40:23.549Z,7.10
2022-11-22T22:42:54.550Z,7.10
2022-11-22T22:45:25.416Z,7.00
2022-11-22T22:48:01.678Z,7.00
2022-11-22T22:50:33.621Z,6.90
2022-11-22T22:53:02.271Z,7.00
2022-11-22T22:55:34.468Z,6.90
2022-11-22T22:58:07.701Z,7.00
2022-11-22T23:00:40.577Z,7.00
2022-11-22T23:03:18.479Z,7.20
2022-11-22T23:05:49.885Z,7.10
2022-11-22T23:08:23.526Z,7.10
2022-11-22T23:10:56.483Z,7.10
2022-11-22T23:13:25.607Z,7.10
2022-11-22T23:15:58.899Z,7.20
2022-11-22T23:18:29.845Z,7.10
2022-11-22T23:21:01.231Z,7.10
2022-11-22T23:23:32.253Z,7.10
2022-11-22T23:26:03.344Z,7.10
2022-11-22T23:28:31.976Z,7.10
2022-11-22T23:31:07.168Z,7.00
2022-11-22T23:33:35.805Z,7.00
2022-11-22T23:36:05.545Z,7.00
2022-11-22T23:38:34.352Z,7.00
2022-11-22T23:41:02.846Z,7.00
2022-11-22T23:43:31.491Z,7.00
2022-11-22T23:46:00.029Z,7.00
2022-11-22T23:48:30.212Z,6.90
2022-11-22T23:51:03.638Z,6.90
2022-11-22T23:53:31.676Z,6.80
2022-11-22T23:56:08.232Z,6.80
2022-11-22T23:58:39.714Z,6.80
